Terminal Aerodrome Forecast
Issued by NWS

Home | Current Version | Previous Version | Text Only | Print | Product List | Glossary On
Versions: 1 2 3 4 5 6 7 8 9 10 11 12 13 14 15 16 17 18 19 20 21 22 23
000
FTUS44 KFWD 292339
TAFDAL
TAF
KDAL 292339Z 3000/3024 16014KT P6SM SCT060 SCT250
     FM300200 34014KT P6SM VCTS SCT050CB BKN250
      TEMPO 3002/3004 -TSRA BKN040CB
     FM300400 02008KT P6SM SCT060
     FM301400 08008KT P6SM BKN015
     FM301900 13008KT P6SM OVC035=

USA.gov is the U.S. government's official web portal to all federal, state and local government web resources and services.